sensor_id;sensor_type;location;lat;lon;timestamp;P1;durP1;ratioP1;P2;durP2;ratioP2
44228;SDS011;29904;51.058;5.378;2023-02-19T00:01:32;6.03;;;4.03;;
44228;SDS011;29904;51.058;5.378;2023-02-19T00:04:04;5.43;;;3.55;;
44228;SDS011;29904;51.058;5.378;2023-02-19T00:06:31;5.05;;;3.53;;
44228;SDS011;29904;51.058;5.378;2023-02-19T00:08:58;5.60;;;3.87;;
44228;SDS011;29904;51.058;5.378;2023-02-19T00:11:26;4.85;;;3.75;;
44228;SDS011;29904;51.058;5.378;2023-02-19T00:13:54;5.28;;;3.55;;
44228;SDS011;29904;51.058;5.378;2023-02-19T00:16:26;5.30;;;3.70;;
44228;SDS011;29904;51.058;5.378;2023-02-19T00:18:56;4.53;;;3.47;;
44228;SDS011;29904;51.058;5.378;2023-02-19T00:21:23;5.25;;;3.67;;
44228;SDS011;29904;51.058;5.378;2023-02-19T00:24:03;5.53;;;3.40;;
44228;SDS011;29904;51.058;5.378;2023-02-19T00:26:31;5.05;;;3.42;;
44228;SDS011;29904;51.058;5.378;2023-02-19T00:28:58;6.43;;;3.50;;
44228;SDS011;29904;51.058;5.378;2023-02-19T00:31:26;4.75;;;3.40;;
44228;SDS011;29904;51.058;5.378;2023-02-19T00:33:57;5.95;;;3.80;;
44228;SDS011;29904;51.058;5.378;2023-02-19T00:36:25;4.78;;;3.70;;
44228;SDS011;29904;51.058;5.378;2023-02-19T00:38:51;5.72;;;3.80;;
44228;SDS011;29904;51.058;5.378;2023-02-19T00:41:22;5.10;;;3.55;;
44228;SDS011;29904;51.058;5.378;2023-02-19T00:46:14;6.37;;;4.37;;
44228;SDS011;29904;51.058;5.378;2023-02-19T00:48:43;4.90;;;3.70;;
44228;SDS011;29904;51.058;5.378;2023-02-19T00:51:09;6.70;;;3.90;;
44228;SDS011;29904;51.058;5.378;2023-02-19T00:53:35;6.70;;;4.28;;
44228;SDS011;29904;51.058;5.378;2023-02-19T00:56:03;7.82;;;4.68;;
44228;SDS011;29904;51.058;5.378;2023-02-19T00:58:30;7.78;;;4.15;;
44228;SDS011;29904;51.058;5.378;2023-02-19T01:00:56;7.30;;;4.40;;
44228;SDS011;29904;51.058;5.378;2023-02-19T01:03:25;6.50;;;4.38;;
44228;SDS011;29904;51.058;5.378;2023-02-19T01:05:52;6.20;;;4.28;;
44228;SDS011;29904;51.058;5.378;2023-02-19T01:08:18;7.40;;;4.50;;
44228;SDS011;29904;51.058;5.378;2023-02-19T01:10:46;6.63;;;4.50;;
44228;SDS011;29904;51.058;5.378;2023-02-19T01:13:12;8.15;;;4.75;;
44228;SDS011;29904;51.058;5.378;2023-02-19T01:15:40;8.07;;;4.78;;
44228;SDS011;29904;51.058;5.378;2023-02-19T01:18:06;5.93;;;4.40;;
44228;SDS011;29904;51.058;5.378;2023-02-19T01:20:32;7.47;;;4.35;;
44228;SDS011;29904;51.058;5.378;2023-02-19T01:22:57;6.72;;;4.57;;
44228;SDS011;29904;51.058;5.378;2023-02-19T01:25:23;8.00;;;4.90;;
44228;SDS011;29904;51.058;5.378;2023-02-19T01:27:49;7.67;;;4.60;;
44228;SDS011;29904;51.058;5.378;2023-02-19T01:30:15;8.37;;;5.20;;
44228;SDS011;29904;51.058;5.378;2023-02-19T01:32:41;8.20;;;5.00;;
44228;SDS011;29904;51.058;5.378;2023-02-19T01:35:06;9.67;;;5.50;;
44228;SDS011;29904;51.058;5.378;2023-02-19T01:37:32;7.30;;;4.80;;
44228;SDS011;29904;51.058;5.378;2023-02-19T01:39:58;10.23;;;5.33;;
44228;SDS011;29904;51.058;5.378;2023-02-19T01:42:24;9.57;;;5.17;;
44228;SDS011;29904;51.058;5.378;2023-02-19T01:47:36;8.20;;;5.40;;
44228;SDS011;29904;51.058;5.378;2023-02-19T01:50:02;10.20;;;5.70;;
44228;SDS011;29904;51.058;5.378;2023-02-19T01:52:31;8.70;;;4.80;;
44228;SDS011;29904;51.058;5.378;2023-02-19T01:55:00;9.17;;;5.37;;
44228;SDS011;29904;51.058;5.378;2023-02-19T01:57:30;9.32;;;5.30;;
44228;SDS011;29904;51.058;5.378;2023-02-19T02:00:05;8.52;;;5.10;;
44228;SDS011;29904;51.058;5.378;2023-02-19T02:02:33;10.18;;;5.53;;
44228;SDS011;29904;51.058;5.378;2023-02-19T02:04:59;10.35;;;5.53;;
44228;SDS011;29904;51.058;5.378;2023-02-19T02:07:26;11.70;;;5.78;;
44228;SDS011;29904;51.058;5.378;2023-02-19T02:10:10;11.82;;;6.40;;
44228;SDS011;29904;51.058;5.378;2023-02-19T02:12:56;9.30;;;6.00;;
44228;SDS011;29904;51.058;5.378;2023-02-19T02:15:22;11.02;;;6.35;;
44228;SDS011;29904;51.058;5.378;2023-02-19T02:17:59;11.05;;;6.30;;
44228;SDS011;29904;51.058;5.378;2023-02-19T02:31:46;13.55;;;7.10;;
44228;SDS011;29904;51.058;5.378;2023-02-19T02:34:22;9.57;;;6.33;;
44228;SDS011;29904;51.058;5.378;2023-02-19T02:36:54;10.95;;;6.53;;
44228;SDS011;29904;51.058;5.378;2023-02-19T02:39:24;13.77;;;6.53;;
44228;SDS011;29904;51.058;5.378;2023-02-19T02:41:55;10.77;;;6.78;;
44228;SDS011;29904;51.058;5.378;2023-02-19T02:44:40;13.77;;;6.90;;
44228;SDS011;29904;51.058;5.378;2023-02-19T02:47:32;12.70;;;7.13;;
44228;SDS011;29904;51.058;5.378;2023-02-19T02:50:10;13.10;;;6.70;;
44228;SDS011;29904;51.058;5.378;2023-02-19T02:52:44;12.10;;;6.70;;
44228;SDS011;29904;51.058;5.378;2023-02-19T02:55:35;12.25;;;6.80;;
44228;SDS011;29904;51.058;5.378;2023-02-19T02:58:05;13.60;;;6.85;;
44228;SDS011;29904;51.058;5.378;2023-02-19T03:00:32;11.70;;;6.63;;
44228;SDS011;29904;51.058;5.378;2023-02-19T03:03:19;12.90;;;7.07;;
44228;SDS011;29904;51.058;5.378;2023-02-19T03:05:47;12.10;;;6.43;;
44228;SDS011;29904;51.058;5.378;2023-02-19T03:08:29;12.05;;;6.57;;
44228;SDS011;29904;51.058;5.378;2023-02-19T03:11:01;10.07;;;6.20;;
44228;SDS011;29904;51.058;5.378;2023-02-19T03:13:52;9.90;;;5.88;;
44228;SDS011;29904;51.058;5.378;2023-02-19T03:16:49;10.50;;;6.05;;
44228;SDS011;29904;51.058;5.378;2023-02-19T03:19:39;10.68;;;5.90;;
44228;SDS011;29904;51.058;5.378;2023-02-19T03:22:12;11.37;;;6.20;;
44228;SDS011;29904;51.058;5.378;2023-02-19T03:24:46;10.95;;;5.50;;
44228;SDS011;29904;51.058;5.378;2023-02-19T03:27:35;11.35;;;5.18;;
44228;SDS011;29904;51.058;5.378;2023-02-19T03:30:07;9.50;;;5.03;;
44228;SDS011;29904;51.058;5.378;2023-02-19T03:32:38;12.18;;;5.20;;
44228;SDS011;29904;51.058;5.378;2023-02-19T03:35:26;9.65;;;4.90;;
44228;SDS011;29904;51.058;5.378;2023-02-19T03:37:59;10.40;;;4.78;;
44228;SDS011;29904;51.058;5.378;2023-02-19T03:40:35;12.40;;;4.70;;
44228;SDS011;29904;51.058;5.378;2023-02-19T03:48:15;8.48;;;3.63;;
44228;SDS011;29904;51.058;5.378;2023-02-19T03:59:27;9.00;;;2.55;;
44228;SDS011;29904;51.058;5.378;2023-02-19T04:02:02;9.00;;;3.10;;
44228;SDS011;29904;51.058;5.378;2023-02-19T04:04:41;9.55;;;2.65;;
44228;SDS011;29904;51.058;5.378;2023-02-19T04:07:16;7.07;;;2.75;;
44228;SDS011;29904;51.058;5.378;2023-02-19T04:09:43;7.30;;;2.35;;
44228;SDS011;29904;51.058;5.378;2023-02-19T04:12:12;6.28;;;2.28;;
44228;SDS011;29904;51.058;5.378;2023-02-19T04:14:49;8.18;;;2.30;;
44228;SDS011;29904;51.058;5.378;2023-02-19T04:17:51;8.90;;;2.47;;
44228;SDS011;29904;51.058;5.378;2023-02-19T04:20:26;8.40;;;2.50;;
44228;SDS011;29904;51.058;5.378;2023-02-19T04:22:54;8.30;;;2.17;;
44228;SDS011;29904;51.058;5.378;2023-02-19T04:25:21;7.05;;;2.00;;
44228;SDS011;29904;51.058;5.378;2023-02-19T04:27:48;7.50;;;2.38;;
44228;SDS011;29904;51.058;5.378;2023-02-19T04:30:17;9.73;;;2.30;;
44228;SDS011;29904;51.058;5.378;2023-02-19T04:32:43;9.32;;;2.20;;
44228;SDS011;29904;51.058;5.378;2023-02-19T04:35:09;8.37;;;2.20;;
44228;SDS011;29904;51.058;5.378;2023-02-19T04:37:35;7.70;;;2.20;;
44228;SDS011;29904;51.058;5.378;2023-02-19T04:40:00;7.33;;;1.87;;
44228;SDS011;29904;51.058;5.378;2023-02-19T04:42:26;8.82;;;2.10;;
44228;SDS011;29904;51.058;5.378;2023-02-19T04:44:54;8.65;;;2.10;;
44228;SDS011;29904;51.058;5.378;2023-02-19T04:47:19;5.93;;;1.52;;
44228;SDS011;29904;51.058;5.378;2023-02-19T04:49:45;7.77;;;2.30;;
44228;SDS011;29904;51.058;5.378;2023-02-19T04:52:11;7.68;;;1.98;;
44228;SDS011;29904;51.058;5.378;2023-02-19T04:54:37;7.18;;;1.88;;
44228;SDS011;29904;51.058;5.378;2023-02-19T04:57:03;5.80;;;1.70;;
44228;SDS011;29904;51.058;5.378;2023-02-19T04:59:28;7.97;;;1.80;;
44228;SDS011;29904;51.058;5.378;2023-02-19T05:01:56;8.98;;;1.90;;
44228;SDS011;29904;51.058;5.378;2023-02-19T05:04:22;6.60;;;1.70;;
44228;SDS011;29904;51.058;5.378;2023-02-19T05:06:48;6.85;;;1.95;;
44228;SDS011;29904;51.058;5.378;2023-02-19T05:09:16;7.45;;;2.10;;
44228;SDS011;29904;51.058;5.378;2023-02-19T05:11:42;7.80;;;2.10;;
44228;SDS011;29904;51.058;5.378;2023-02-19T05:14:08;10.00;;;2.33;;
44228;SDS011;29904;51.058;5.378;2023-02-19T05:16:34;11.43;;;2.47;;
44228;SDS011;29904;51.058;5.378;2023-02-19T05:18:59;9.80;;;2.40;;
44228;SDS011;29904;51.058;5.378;2023-02-19T05:21:25;8.02;;;2.03;;
44228;SDS011;29904;51.058;5.378;2023-02-19T05:23:51;8.40;;;2.00;;
44228;SDS011;29904;51.058;5.378;2023-02-19T05:26:18;9.00;;;2.22;;
44228;SDS011;29904;51.058;5.378;2023-02-19T05:28:46;9.00;;;1.88;;
44228;SDS011;29904;51.058;5.378;2023-02-19T05:31:15;7.53;;;2.20;;
44228;SDS011;29904;51.058;5.378;2023-02-19T05:33:41;9.18;;;2.22;;
44228;SDS011;29904;51.058;5.378;2023-02-19T05:36:09;9.15;;;1.77;;
44228;SDS011;29904;51.058;5.378;2023-02-19T05:38:37;5.65;;;1.73;;
44228;SDS011;29904;51.058;5.378;2023-02-19T05:41:08;9.20;;;2.38;;
44228;SDS011;29904;51.058;5.378;2023-02-19T05:43:38;8.75;;;1.98;;
44228;SDS011;29904;51.058;5.378;2023-02-19T05:46:05;8.77;;;1.80;;
44228;SDS011;29904;51.058;5.378;2023-02-19T05:48:32;7.20;;;1.80;;
44228;SDS011;29904;51.058;5.378;2023-02-19T05:51:00;7.65;;;1.63;;
44228;SDS011;29904;51.058;5.378;2023-02-19T05:53:30;9.60;;;2.03;;
44228;SDS011;29904;51.058;5.378;2023-02-19T05:55:56;9.20;;;2.10;;
44228;SDS011;29904;51.058;5.378;2023-02-19T05:58:23;8.13;;;1.97;;
44228;SDS011;29904;51.058;5.378;2023-02-19T06:00:48;10.35;;;1.92;;
44228;SDS011;29904;51.058;5.378;2023-02-19T06:03:14;6.35;;;1.80;;
44228;SDS011;29904;51.058;5.378;2023-02-19T06:05:40;12.70;;;2.25;;
44228;SDS011;29904;51.058;5.378;2023-02-19T06:08:06;10.20;;;2.08;;
44228;SDS011;29904;51.058;5.378;2023-02-19T06:10:32;11.20;;;2.10;;
44228;SDS011;29904;51.058;5.378;2023-02-19T06:13:01;9.35;;;2.05;;
44228;SDS011;29904;51.058;5.378;2023-02-19T06:15:28;9.40;;;1.95;;
44228;SDS011;29904;51.058;5.378;2023-02-19T06:17:54;8.80;;;1.97;;
44228;SDS011;29904;51.058;5.378;2023-02-19T06:20:20;10.93;;;2.43;;
44228;SDS011;29904;51.058;5.378;2023-02-19T06:22:45;9.63;;;2.20;;
44228;SDS011;29904;51.058;5.378;2023-02-19T06:25:13;11.80;;;2.23;;
44228;SDS011;29904;51.058;5.378;2023-02-19T06:27:41;10.63;;;2.30;;
44228;SDS011;29904;51.058;5.378;2023-02-19T06:30:07;8.13;;;1.90;;
44228;SDS011;29904;51.058;5.378;2023-02-19T06:32:33;12.50;;;2.47;;
44228;SDS011;29904;51.058;5.378;2023-02-19T06:35:01;10.77;;;2.33;;
44228;SDS011;29904;51.058;5.378;2023-02-19T06:37:27;8.07;;;1.70;;
44228;SDS011;29904;51.058;5.378;2023-02-19T06:39:53;11.85;;;2.00;;
44228;SDS011;29904;51.058;5.378;2023-02-19T06:42:21;9.95;;;2.25;;
44228;SDS011;29904;51.058;5.378;2023-02-19T06:44:46;9.47;;;2.30;;
44228;SDS011;29904;51.058;5.378;2023-02-19T06:47:12;7.20;;;2.10;;
44228;SDS011;29904;51.058;5.378;2023-02-19T06:49:38;10.00;;;2.75;;
44228;SDS011;29904;51.058;5.378;2023-02-19T06:52:04;7.90;;;2.25;;
44228;SDS011;29904;51.058;5.378;2023-02-19T06:54:30;8.45;;;1.88;;
44228;SDS011;29904;51.058;5.378;2023-02-19T06:56:57;15.80;;;3.90;;
44228;SDS011;29904;51.058;5.378;2023-02-19T06:59:23;10.48;;;2.13;;
44228;SDS011;29904;51.058;5.378;2023-02-19T07:01:49;6.72;;;2.10;;
44228;SDS011;29904;51.058;5.378;2023-02-19T07:04:15;9.00;;;1.98;;
44228;SDS011;29904;51.058;5.378;2023-02-19T07:06:41;8.27;;;2.03;;
44228;SDS011;29904;51.058;5.378;2023-02-19T07:09:07;10.35;;;2.30;;
44228;SDS011;29904;51.058;5.378;2023-02-19T07:11:35;9.17;;;1.80;;
44228;SDS011;29904;51.058;5.378;2023-02-19T07:14:03;8.35;;;1.90;;
44228;SDS011;29904;51.058;5.378;2023-02-19T07:16:31;10.00;;;2.20;;
44228;SDS011;29904;51.058;5.378;2023-02-19T07:18:57;9.30;;;1.90;;
44228;SDS011;29904;51.058;5.378;2023-02-19T07:21:24;8.10;;;1.70;;
44228;SDS011;29904;51.058;5.378;2023-02-19T07:23:51;9.00;;;2.20;;
44228;SDS011;29904;51.058;5.378;2023-02-19T07:26:18;9.00;;;2.03;;
44228;SDS011;29904;51.058;5.378;2023-02-19T07:28:46;8.00;;;2.10;;
44228;SDS011;29904;51.058;5.378;2023-02-19T07:31:13;10.85;;;2.03;;
44228;SDS011;29904;51.058;5.378;2023-02-19T07:33:43;8.55;;;1.90;;
44228;SDS011;29904;51.058;5.378;2023-02-19T07:36:09;9.48;;;2.28;;
44228;SDS011;29904;51.058;5.378;2023-02-19T07:38:36;9.13;;;1.97;;
44228;SDS011;29904;51.058;5.378;2023-02-19T07:41:02;8.77;;;1.87;;
44228;SDS011;29904;51.058;5.378;2023-02-19T07:43:33;9.43;;;1.98;;
44228;SDS011;29904;51.058;5.378;2023-02-19T07:46:01;7.10;;;1.80;;
44228;SDS011;29904;51.058;5.378;2023-02-19T07:48:31;11.23;;;2.15;;
44228;SDS011;29904;51.058;5.378;2023-02-19T07:51:00;9.75;;;1.88;;
44228;SDS011;29904;51.058;5.378;2023-02-19T07:53:27;8.88;;;2.13;;
44228;SDS011;29904;51.058;5.378;2023-02-19T07:55:53;9.47;;;2.17;;
44228;SDS011;29904;51.058;5.378;2023-02-19T07:58:22;12.05;;;2.17;;
44228;SDS011;29904;51.058;5.378;2023-02-19T08:00:48;12.83;;;2.93;;
44228;SDS011;29904;51.058;5.378;2023-02-19T08:03:14;8.77;;;2.47;;
44228;SDS011;29904;51.058;5.378;2023-02-19T08:05:40;10.93;;;2.50;;
44228;SDS011;29904;51.058;5.378;2023-02-19T08:08:07;8.10;;;2.60;;
44228;SDS011;29904;51.058;5.378;2023-02-19T08:10:34;10.20;;;3.03;;
44228;SDS011;29904;51.058;5.378;2023-02-19T08:13:19;12.30;;;2.83;;
44228;SDS011;29904;51.058;5.378;2023-02-19T08:18:41;10.65;;;2.92;;
44228;SDS011;29904;51.058;5.378;2023-02-19T08:21:07;11.55;;;3.22;;
44228;SDS011;29904;51.058;5.378;2023-02-19T08:23:34;12.70;;;3.50;;
44228;SDS011;29904;51.058;5.378;2023-02-19T08:26:00;8.35;;;3.08;;
44228;SDS011;29904;51.058;5.378;2023-02-19T08:28:27;11.82;;;3.22;;
44228;SDS011;29904;51.058;5.378;2023-02-19T08:30:58;11.25;;;3.50;;
44228;SDS011;29904;51.058;5.378;2023-02-19T08:33:25;11.53;;;3.30;;
44228;SDS011;29904;51.058;5.378;2023-02-19T08:35:51;10.83;;;3.17;;
44228;SDS011;29904;51.058;5.378;2023-02-19T08:38:17;12.13;;;3.03;;
44228;SDS011;29904;51.058;5.378;2023-02-19T08:40:42;7.80;;;2.83;;
44228;SDS011;29904;51.058;5.378;2023-02-19T08:43:09;10.47;;;3.00;;
44228;SDS011;29904;51.058;5.378;2023-02-19T08:45:37;12.02;;;3.22;;
44228;SDS011;29904;51.058;5.378;2023-02-19T08:48:04;8.82;;;2.90;;
44228;SDS011;29904;51.058;5.378;2023-02-19T08:50:30;9.52;;;2.88;;
44228;SDS011;29904;51.058;5.378;2023-02-19T08:52:59;10.18;;;2.80;;
44228;SDS011;29904;51.058;5.378;2023-02-19T08:55:26;10.48;;;3.08;;
44228;SDS011;29904;51.058;5.378;2023-02-19T08:57:52;9.70;;;2.90;;
44228;SDS011;29904;51.058;5.378;2023-02-19T09:00:18;7.85;;;2.65;;
44228;SDS011;29904;51.058;5.378;2023-02-19T09:02:45;7.22;;;2.38;;
44228;SDS011;29904;51.058;5.378;2023-02-19T09:05:11;8.52;;;2.92;;
44228;SDS011;29904;51.058;5.378;2023-02-19T09:07:38;9.83;;;2.57;;
44228;SDS011;29904;51.058;5.378;2023-02-19T09:10:04;10.23;;;2.97;;
44228;SDS011;29904;51.058;5.378;2023-02-19T09:12:30;8.82;;;2.72;;
44228;SDS011;29904;51.058;5.378;2023-02-19T09:14:57;10.13;;;3.35;;
44228;SDS011;29904;51.058;5.378;2023-02-19T09:17:23;7.90;;;3.08;;
44228;SDS011;29904;51.058;5.378;2023-02-19T09:19:49;7.83;;;3.10;;
44228;SDS011;29904;51.058;5.378;2023-02-19T09:22:17;12.18;;;3.50;;
44228;SDS011;29904;51.058;5.378;2023-02-19T09:24:43;8.30;;;3.10;;
44228;SDS011;29904;51.058;5.378;2023-02-19T09:27:09;9.25;;;3.25;;
44228;SDS011;29904;51.058;5.378;2023-02-19T09:29:42;9.25;;;3.20;;
44228;SDS011;29904;51.058;5.378;2023-02-19T09:32:08;10.23;;;3.10;;
44228;SDS011;29904;51.058;5.378;2023-02-19T09:34:34;7.95;;;3.30;;
44228;SDS011;29904;51.058;5.378;2023-02-19T09:37:00;9.70;;;3.37;;
44228;SDS011;29904;51.058;5.378;2023-02-19T09:39:25;12.55;;;3.65;;
44228;SDS011;29904;51.058;5.378;2023-02-19T09:41:52;11.68;;;3.28;;
44228;SDS011;29904;51.058;5.378;2023-02-19T09:44:38;11.17;;;3.60;;
44228;SDS011;29904;51.058;5.378;2023-02-19T09:47:19;7.68;;;3.67;;
44228;SDS011;29904;51.058;5.378;2023-02-19T09:49:47;10.10;;;3.70;;
44228;SDS011;29904;51.058;5.378;2023-02-19T09:55:08;8.55;;;3.25;;
44228;SDS011;29904;51.058;5.378;2023-02-19T09:57:42;11.50;;;3.42;;
44228;SDS011;29904;51.058;5.378;2023-02-19T10:02:50;9.95;;;3.90;;
44228;SDS011;29904;51.058;5.378;2023-02-19T10:05:24;8.48;;;4.07;;
44228;SDS011;29904;51.058;5.378;2023-02-19T10:07:51;9.18;;;3.97;;
44228;SDS011;29904;51.058;5.378;2023-02-19T10:10:37;9.65;;;4.18;;
44228;SDS011;29904;51.058;5.378;2023-02-19T10:13:40;9.95;;;3.80;;
44228;SDS011;29904;51.058;5.378;2023-02-19T10:16:03;10.65;;;4.30;;
44228;SDS011;29904;51.058;5.378;2023-02-19T10:18:34;10.40;;;4.20;;
44228;SDS011;29904;51.058;5.378;2023-02-19T10:21:04;11.50;;;4.05;;
44228;SDS011;29904;51.058;5.378;2023-02-19T10:23:32;10.27;;;4.05;;
44228;SDS011;29904;51.058;5.378;2023-02-19T10:25:58;11.40;;;4.25;;
44228;SDS011;29904;51.058;5.378;2023-02-19T10:28:27;9.32;;;4.22;;
44228;SDS011;29904;51.058;5.378;2023-02-19T10:30:55;13.15;;;4.47;;
44228;SDS011;29904;51.058;5.378;2023-02-19T10:33:23;10.60;;;5.07;;
44228;SDS011;29904;51.058;5.378;2023-02-19T10:36:23;9.77;;;4.43;;
44228;SDS011;29904;51.058;5.378;2023-02-19T10:38:54;8.27;;;4.20;;
44228;SDS011;29904;51.058;5.378;2023-02-19T10:41:21;11.32;;;4.85;;
44228;SDS011;29904;51.058;5.378;2023-02-19T10:46:40;10.60;;;4.70;;
44228;SDS011;29904;51.058;5.378;2023-02-19T10:49:19;10.68;;;4.85;;
44228;SDS011;29904;51.058;5.378;2023-02-19T10:51:57;10.45;;;4.00;;
44228;SDS011;29904;51.058;5.378;2023-02-19T10:54:27;8.63;;;3.63;;
44228;SDS011;29904;51.058;5.378;2023-02-19T11:02:22;6.82;;;3.70;;
44228;SDS011;29904;51.058;5.378;2023-02-19T11:07:44;10.30;;;4.38;;
44228;SDS011;29904;51.058;5.378;2023-02-19T11:10:20;8.77;;;4.10;;
44228;SDS011;29904;51.058;5.378;2023-02-19T11:12:56;8.63;;;4.13;;
44228;SDS011;29904;51.058;5.378;2023-02-19T11:15:31;12.15;;;4.70;;
44228;SDS011;29904;51.058;5.378;2023-02-19T11:18:02;10.50;;;4.97;;
44228;SDS011;29904;51.058;5.378;2023-02-19T11:20:31;8.40;;;5.00;;
44228;SDS011;29904;51.058;5.378;2023-02-19T11:22:59;12.13;;;5.03;;
44228;SDS011;29904;51.058;5.378;2023-02-19T11:25:28;9.50;;;5.30;;
44228;SDS011;29904;51.058;5.378;2023-02-19T11:30:41;13.07;;;5.85;;
44228;SDS011;29904;51.058;5.378;2023-02-19T11:35:43;12.25;;;5.50;;
44228;SDS011;29904;51.058;5.378;2023-02-19T11:38:11;11.25;;;5.53;;
44228;SDS011;29904;51.058;5.378;2023-02-19T11:45:56;13.55;;;6.70;;
44228;SDS011;29904;51.058;5.378;2023-02-19T11:48:31;11.55;;;6.10;;
44228;SDS011;29904;51.058;5.378;2023-02-19T11:51:18;9.38;;;5.50;;
44228;SDS011;29904;51.058;5.378;2023-02-19T11:57:16;10.83;;;6.17;;
44228;SDS011;29904;51.058;5.378;2023-02-19T11:59:51;10.03;;;7.23;;
44228;SDS011;29904;51.058;5.378;2023-02-19T12:21:58;9.93;;;4.90;;
44228;SDS011;29904;51.058;5.378;2023-02-19T12:27:34;10.70;;;5.60;;
44228;SDS011;29904;51.058;5.378;2023-02-19T12:38:21;12.35;;;4.93;;
44228;SDS011;29904;51.058;5.378;2023-02-19T12:43:24;10.20;;;4.70;;
44228;SDS011;29904;51.058;5.378;2023-02-19T12:46:04;11.63;;;4.35;;
44228;SDS011;29904;51.058;5.378;2023-02-19T12:48:55;13.48;;;6.75;;
44228;SDS011;29904;51.058;5.378;2023-02-19T12:51:36;14.77;;;6.00;;
44228;SDS011;29904;51.058;5.378;2023-02-19T12:54:17;12.98;;;5.50;;
44228;SDS011;29904;51.058;5.378;2023-02-19T12:59:38;8.50;;;4.10;;
44228;SDS011;29904;51.058;5.378;2023-02-19T13:10:29;9.55;;;4.60;;
44228;SDS011;29904;51.058;5.378;2023-02-19T13:13:00;9.55;;;4.65;;
44228;SDS011;29904;51.058;5.378;2023-02-19T13:15:32;10.60;;;4.88;;
44228;SDS011;29904;51.058;5.378;2023-02-19T13:18:02;8.13;;;4.22;;
44228;SDS011;29904;51.058;5.378;2023-02-19T13:20:35;12.15;;;4.57;;
44228;SDS011;29904;51.058;5.378;2023-02-19T13:37:38;11.55;;;5.60;;
44228;SDS011;29904;51.058;5.378;2023-02-19T13:40:06;9.52;;;4.95;;
44228;SDS011;29904;51.058;5.378;2023-02-19T13:42:55;9.35;;;4.95;;
44228;SDS011;29904;51.058;5.378;2023-02-19T13:45:29;8.23;;;4.75;;
44228;SDS011;29904;51.058;5.378;2023-02-19T13:50:23;11.07;;;5.00;;
44228;SDS011;29904;51.058;5.378;2023-02-19T13:52:57;10.25;;;4.50;;
44228;SDS011;29904;51.058;5.378;2023-02-19T14:00:58;8.67;;;4.73;;
44228;SDS011;29904;51.058;5.378;2023-02-19T14:03:29;9.90;;;5.40;;
44228;SDS011;29904;51.058;5.378;2023-02-19T14:06:08;8.43;;;6.00;;
44228;SDS011;29904;51.058;5.378;2023-02-19T14:11:12;6.80;;;5.13;;
44228;SDS011;29904;51.058;5.378;2023-02-19T14:18:55;8.50;;;6.40;;
44228;SDS011;29904;51.058;5.378;2023-02-19T14:21:22;7.60;;;5.78;;
44228;SDS011;29904;51.058;5.378;2023-02-19T14:23:52;9.00;;;6.50;;
44228;SDS011;29904;51.058;5.378;2023-02-19T14:26:21;9.32;;;6.30;;
44228;SDS011;29904;51.058;5.378;2023-02-19T14:28:49;9.20;;;5.90;;
44228;SDS011;29904;51.058;5.378;2023-02-19T14:33:51;5.93;;;4.40;;
44228;SDS011;29904;51.058;5.378;2023-02-19T14:41:39;6.10;;;3.53;;
44228;SDS011;29904;51.058;5.378;2023-02-19T14:44:13;4.85;;;3.30;;
44228;SDS011;29904;51.058;5.378;2023-02-19T14:46:56;5.28;;;3.50;;
44228;SDS011;29904;51.058;5.378;2023-02-19T14:50:13;5.90;;;3.47;;
44228;SDS011;29904;51.058;5.378;2023-02-19T14:52:26;5.18;;;3.42;;
44228;SDS011;29904;51.058;5.378;2023-02-19T14:55:14;5.20;;;3.53;;
44228;SDS011;29904;51.058;5.378;2023-02-19T14:57:44;6.38;;;3.53;;
44228;SDS011;29904;51.058;5.378;2023-02-19T15:00:22;6.72;;;3.60;;
44228;SDS011;29904;51.058;5.378;2023-02-19T15:02:52;4.88;;;3.75;;
44228;SDS011;29904;51.058;5.378;2023-02-19T15:05:25;5.75;;;3.78;;
44228;SDS011;29904;51.058;5.378;2023-02-19T15:08:03;5.03;;;4.00;;
44228;SDS011;29904;51.058;5.378;2023-02-19T15:10:36;6.53;;;4.00;;
44228;SDS011;29904;51.058;5.378;2023-02-19T15:13:06;5.10;;;3.25;;
44228;SDS011;29904;51.058;5.378;2023-02-19T15:15:36;5.03;;;3.08;;
44228;SDS011;29904;51.058;5.378;2023-02-19T15:18:07;4.68;;;2.85;;
44228;SDS011;29904;51.058;5.378;2023-02-19T15:20:39;4.27;;;2.63;;
44228;SDS011;29904;51.058;5.378;2023-02-19T15:23:06;3.38;;;2.20;;
44228;SDS011;29904;51.058;5.378;2023-02-19T15:25:32;3.65;;;2.20;;
44228;SDS011;29904;51.058;5.378;2023-02-19T15:30:47;3.10;;;2.00;;
44228;SDS011;29904;51.058;5.378;2023-02-19T15:33:16;5.38;;;2.65;;
44228;SDS011;29904;51.058;5.378;2023-02-19T15:35:50;3.95;;;2.40;;
44228;SDS011;29904;51.058;5.378;2023-02-19T15:38:21;4.20;;;2.72;;
44228;SDS011;29904;51.058;5.378;2023-02-19T15:40:47;3.60;;;2.60;;
44228;SDS011;29904;51.058;5.378;2023-02-19T15:43:27;3.10;;;2.42;;
44228;SDS011;29904;51.058;5.378;2023-02-19T15:45:56;4.13;;;2.78;;
44228;SDS011;29904;51.058;5.378;2023-02-19T15:51:38;3.88;;;2.50;;
44228;SDS011;29904;51.058;5.378;2023-02-19T15:57:04;4.20;;;2.88;;
44228;SDS011;29904;51.058;5.378;2023-02-19T15:59:56;4.53;;;2.90;;
44228;SDS011;29904;51.058;5.378;2023-02-19T16:02:25;4.70;;;3.10;;
44228;SDS011;29904;51.058;5.378;2023-02-19T16:04:51;3.60;;;2.70;;
44228;SDS011;29904;51.058;5.378;2023-02-19T16:07:24;2.88;;;2.40;;
44228;SDS011;29904;51.058;5.378;2023-02-19T16:12:58;4.65;;;2.80;;
44228;SDS011;29904;51.058;5.378;2023-02-19T16:15:26;3.38;;;2.47;;
44228;SDS011;29904;51.058;5.378;2023-02-19T16:17:53;3.78;;;2.85;;
44228;SDS011;29904;51.058;5.378;2023-02-19T16:20:27;4.87;;;3.20;;
44228;SDS011;29904;51.058;5.378;2023-02-19T16:23:03;4.28;;;2.90;;
44228;SDS011;29904;51.058;5.378;2023-02-19T16:25:37;5.15;;;3.15;;
44228;SDS011;29904;51.058;5.378;2023-02-19T16:28:23;5.38;;;3.25;;
44228;SDS011;29904;51.058;5.378;2023-02-19T16:30:54;4.50;;;3.50;;
44228;SDS011;29904;51.058;5.378;2023-02-19T16:33:35;4.95;;;3.30;;
44228;SDS011;29904;51.058;5.378;2023-02-19T16:46:52;4.05;;;1.90;;
44228;SDS011;29904;51.058;5.378;2023-02-19T16:49:23;2.50;;;1.60;;
44228;SDS011;29904;51.058;5.378;2023-02-19T16:51:49;2.80;;;1.70;;
44228;SDS011;29904;51.058;5.378;2023-02-19T16:54:15;2.65;;;1.70;;
44228;SDS011;29904;51.058;5.378;2023-02-19T16:56:41;4.22;;;2.42;;
44228;SDS011;29904;51.058;5.378;2023-02-19T16:59:07;3.40;;;2.22;;
44228;SDS011;29904;51.058;5.378;2023-02-19T17:01:33;2.92;;;2.13;;
44228;SDS011;29904;51.058;5.378;2023-02-19T17:04:05;4.88;;;2.22;;
44228;SDS011;29904;51.058;5.378;2023-02-19T17:06:34;4.77;;;2.87;;
44228;SDS011;29904;51.058;5.378;2023-02-19T17:09:01;3.30;;;2.33;;
44228;SDS011;29904;51.058;5.378;2023-02-19T17:11:30;3.53;;;2.53;;
44228;SDS011;29904;51.058;5.378;2023-02-19T17:13:56;3.93;;;2.27;;
44228;SDS011;29904;51.058;5.378;2023-02-19T17:16:25;4.93;;;2.60;;
44228;SDS011;29904;51.058;5.378;2023-02-19T17:18:53;3.83;;;2.60;;
44228;SDS011;29904;51.058;5.378;2023-02-19T17:21:26;4.40;;;2.97;;
44228;SDS011;29904;51.058;5.378;2023-02-19T17:23:53;5.82;;;3.05;;
44228;SDS011;29904;51.058;5.378;2023-02-19T17:26:25;4.40;;;2.67;;
44228;SDS011;29904;51.058;5.378;2023-02-19T17:28:54;4.05;;;2.60;;
44228;SDS011;29904;51.058;5.378;2023-02-19T17:31:21;3.77;;;2.50;;
44228;SDS011;29904;51.058;5.378;2023-02-19T17:33:47;4.35;;;2.50;;
44228;SDS011;29904;51.058;5.378;2023-02-19T17:36:18;5.43;;;3.00;;
44228;SDS011;29904;51.058;5.378;2023-02-19T17:38:46;4.60;;;3.10;;
44228;SDS011;29904;51.058;5.378;2023-02-19T17:41:12;6.20;;;3.60;;
44228;SDS011;29904;51.058;5.378;2023-02-19T17:43:38;5.67;;;3.20;;
44228;SDS011;29904;51.058;5.378;2023-02-19T17:46:03;4.80;;;2.90;;
44228;SDS011;29904;51.058;5.378;2023-02-19T17:48:29;5.43;;;2.77;;
44228;SDS011;29904;51.058;5.378;2023-02-19T17:50:55;5.78;;;3.80;;